createdAt,value
2019-05-26T00:00:09.537Z,9.82
2019-05-26T00:01:09.313Z,9.76
2019-05-26T00:02:09.302Z,9.75
2019-05-26T00:03:09.291Z,9.75
2019-05-26T00:04:09.278Z,9.67
2019-05-26T00:05:09.270Z,9.57
2019-05-26T00:06:09.325Z,9.52
2019-05-26T00:07:09.245Z,9.58
2019-05-26T00:08:09.234Z,9.68
2019-05-26T00:09:09.223Z,9.66
2019-05-26T00:10:09.297Z,9.61
2019-05-26T00:11:09.200Z,9.67
2019-05-26T00:12:09.262Z,9.70
2019-05-26T00:13:09.176Z,9.68
2019-05-26T00:14:09.164Z,9.73
2019-05-26T00:15:09.154Z,9.76
2019-05-26T00:16:09.158Z,9.68
2019-05-26T00:17:09.131Z,9.76
2019-05-26T00:18:09.187Z,9.70
2019-05-26T00:19:09.108Z,9.60
2019-05-26T00:20:09.100Z,9.58
2019-05-26T00:21:09.087Z,9.43
2019-05-26T00:22:09.075Z,9.45
2019-05-26T00:23:09.068Z,9.43
2019-05-26T00:24:09.121Z,9.35
2019-05-26T00:25:09.042Z,9.39
2019-05-26T00:26:09.031Z,9.39
2019-05-26T00:27:09.019Z,9.43
2019-05-26T00:28:09.010Z,9.39
2019-05-26T00:29:08.996Z,9.34
2019-05-26T00:30:09.197Z,9.34
2019-05-26T00:31:08.975Z,9.34
2019-05-26T00:32:08.963Z,9.24
2019-05-26T00:33:08.952Z,9.20
2019-05-26T00:34:08.950Z,9.18
2019-05-26T00:35:08.946Z,9.10
2019-05-26T00:36:08.986Z,8.97
2019-05-26T00:37:08.908Z,8.93
2019-05-26T00:38:08.898Z,8.94
2019-05-26T00:39:08.888Z,8.81
2019-05-26T00:40:08.874Z,8.81
2019-05-26T00:41:08.861Z,8.83
2019-05-26T00:42:08.924Z,8.75
2019-05-26T00:43:08.840Z,8.75
2019-05-26T00:44:08.828Z,8.53
2019-05-26T00:45:08.817Z,8.53
2019-05-26T00:46:08.806Z,8.54
2019-05-26T00:47:08.796Z,8.40
2019-05-26T00:48:08.994Z,8.35
2019-05-26T00:49:08.771Z,8.35
2019-05-26T00:50:08.763Z,8.08
2019-05-26T00:51:08.752Z,7.82
2019-05-26T00:52:08.746Z,7.77
2019-05-26T00:53:08.727Z,7.62
2019-05-26T00:54:08.785Z,7.50
2019-05-26T00:55:08.709Z,7.50
2019-05-26T00:56:08.692Z,7.52
2019-05-26T00:57:08.685Z,7.58
2019-05-26T00:58:08.673Z,7.71
2019-05-26T00:59:08.659Z,7.71
2019-05-26T01:00:08.722Z,7.77
2019-05-26T01:01:08.639Z,7.71
2019-05-26T01:02:08.656Z,7.79
2019-05-26T01:03:08.613Z,7.79
2019-05-26T01:04:08.602Z,7.85
2019-05-26T01:05:08.590Z,7.85
2019-05-26T01:06:08.790Z,7.81
2019-05-26T01:07:08.567Z,7.77
2019-05-26T01:08:08.556Z,7.75
2019-05-26T01:09:08.546Z,7.77
2019-05-26T01:10:08.533Z,7.89
2019-05-26T01:11:08.521Z,7.82
2019-05-26T01:12:08.578Z,7.87
2019-05-26T01:13:08.500Z,8.03
2019-05-26T01:14:08.492Z,8.17
2019-05-26T01:15:08.477Z,8.20
2019-05-26T01:16:08.465Z,8.17
2019-05-26T01:17:08.455Z,8.07
2019-05-26T01:18:08.508Z,8.04
2019-05-26T01:19:08.433Z,8.00
2019-05-26T01:20:08.422Z,8.00
2019-05-26T01:21:08.409Z,8.00
2019-05-26T01:22:08.398Z,7.85
2019-05-26T01:23:08.454Z,7.96
2019-05-26T01:24:08.444Z,8.00
2019-05-26T01:25:08.365Z,7.99
2019-05-26T01:26:08.352Z,8.02
2019-05-26T01:27:08.343Z,8.02
2019-05-26T01:28:08.334Z,8.02
2019-05-26T01:29:08.320Z,8.04
2019-05-26T01:30:08.375Z,8.10
2019-05-26T01:31:08.297Z,8.02
2019-05-26T01:32:08.285Z,7.97
2019-05-26T01:33:08.273Z,8.02
2019-05-26T01:34:08.264Z,7.99
2019-05-26T01:35:08.259Z,7.96
2019-05-26T01:36:08.315Z,7.97
2019-05-26T01:37:08.229Z,7.97
2019-05-26T01:38:22.456Z,7.81
2019-05-26T01:39:09.205Z,7.71
2019-05-26T01:40:08.197Z,7.78
2019-05-26T01:41:08.183Z,7.69
2019-05-26T01:42:08.411Z,7.72
2019-05-26T01:43:08.163Z,7.84
2019-05-26T01:44:08.159Z,7.75
2019-05-26T01:45:08.146Z,7.85
2019-05-26T01:46:08.127Z,7.87
2019-05-26T01:47:08.122Z,7.85
2019-05-26T01:48:08.177Z,7.87
2019-05-26T01:49:08.094Z,7.92
2019-05-26T01:50:08.084Z,7.84
2019-05-26T01:51:08.071Z,7.87
2019-05-26T01:52:08.061Z,7.78
2019-05-26T01:53:08.052Z,7.82
2019-05-26T01:54:08.102Z,7.81
2019-05-26T01:55:08.030Z,7.67
2019-05-26T01:56:08.014Z,7.74
2019-05-26T01:57:08.004Z,7.74
2019-05-26T01:58:07.997Z,7.60
2019-05-26T01:59:07.981Z,7.50
2019-05-26T02:00:08.036Z,7.52
2019-05-26T02:01:07.959Z,7.50
2019-05-26T02:02:07.951Z,7.42
2019-05-26T02:03:07.935Z,7.38
2019-05-26T02:04:07.926Z,7.38
2019-05-26T02:05:07.917Z,7.40
2019-05-26T02:06:07.984Z,7.29
2019-05-26T02:07:07.890Z,7.40
2019-05-26T02:08:11.664Z,7.37
2019-05-26T02:09:07.869Z,7.37
2019-05-26T02:10:07.858Z,7.34
2019-05-26T02:11:07.846Z,7.31
2019-05-26T02:12:08.044Z,7.29
2019-05-26T02:13:07.822Z,7.23
2019-05-26T02:14:07.813Z,7.20
2019-05-26T02:15:07.803Z,7.22
2019-05-26T02:16:07.792Z,7.15
2019-05-26T02:17:07.778Z,7.05
2019-05-26T02:18:07.878Z,6.98
2019-05-26T02:19:07.760Z,6.97
2019-05-26T02:20:07.751Z,6.87
2019-05-26T02:21:07.853Z,6.86
2019-05-26T02:22:07.720Z,6.81
2019-05-26T02:23:07.713Z,6.86
2019-05-26T02:24:07.770Z,6.81
2019-05-26T02:25:07.689Z,6.79
2019-05-26T02:26:07.676Z,6.72
2019-05-26T02:27:07.670Z,6.71
2019-05-26T02:28:07.657Z,6.81
2019-05-26T02:29:07.658Z,6.84
2019-05-26T02:30:07.704Z,6.91
2019-05-26T02:31:07.623Z,6.76
2019-05-26T02:32:07.611Z,6.86
2019-05-26T02:33:07.599Z,6.68
2019-05-26T02:34:07.587Z,6.89
2019-05-26T02:35:07.576Z,6.94
2019-05-26T02:36:07.774Z,6.86
2019-05-26T02:37:07.556Z,6.86
2019-05-26T02:38:07.544Z,6.84
2019-05-26T02:39:07.534Z,6.91
2019-05-26T02:40:07.536Z,6.91
2019-05-26T02:41:07.509Z,6.86
2019-05-26T02:42:07.564Z,6.91
2019-05-26T02:43:07.488Z,6.89
2019-05-26T02:44:07.474Z,6.68
2019-05-26T02:45:07.470Z,6.71
2019-05-26T02:46:07.471Z,6.66
2019-05-26T02:47:07.448Z,6.68
2019-05-26T02:48:07.496Z,6.66
2019-05-26T02:49:07.441Z,6.53
2019-05-26T02:50:07.413Z,6.68
2019-05-26T02:51:07.414Z,6.56
2019-05-26T02:52:07.389Z,6.66
2019-05-26T02:53:07.375Z,6.51
2019-05-26T02:54:07.432Z,6.59
2019-05-26T02:55:07.353Z,6.66
2019-05-26T02:56:07.342Z,6.58
2019-05-26T02:57:07.329Z,6.51
2019-05-26T02:58:07.317Z,6.54
2019-05-26T02:59:07.342Z,6.66
2019-05-26T03:00:07.362Z,6.69
2019-05-26T03:01:07.283Z,6.59
2019-05-26T03:02:07.285Z,6.61
2019-05-26T03:03:07.267Z,6.58
2019-05-26T03:04:07.288Z,6.50
2019-05-26T03:05:07.240Z,6.59
2019-05-26T03:06:07.456Z,6.53
2019-05-26T03:07:07.216Z,6.51
2019-05-26T03:08:07.205Z,6.54
2019-05-26T03:09:22.113Z,6.47
2019-05-26T03:10:08.183Z,6.35
2019-05-26T03:11:07.169Z,6.43
2019-05-26T03:12:07.225Z,6.44
2019-05-26T03:13:07.146Z,6.30
2019-05-26T03:14:07.135Z,6.33
2019-05-26T03:15:07.128Z,6.22
2019-05-26T03:16:07.113Z,6.29
2019-05-26T03:17:07.106Z,6.32
2019-05-26T03:18:07.157Z,6.41
2019-05-26T03:19:07.090Z,6.44
2019-05-26T03:20:07.069Z,6.46
2019-05-26T03:21:07.057Z,6.51
2019-05-26T03:22:07.043Z,6.51
2019-05-26T03:23:07.034Z,6.43
2019-05-26T03:24:07.095Z,6.33
2019-05-26T03:25:07.012Z,6.51
2019-05-26T03:26:07.000Z,6.35
2019-05-26T03:27:06.989Z,6.30
2019-05-26T03:28:06.985Z,6.38
2019-05-26T03:29:06.965Z,6.29
2019-05-26T03:30:07.163Z,6.26
2019-05-26T03:31:06.944Z,6.36
2019-05-26T03:32:06.931Z,6.29
2019-05-26T03:33:06.941Z,6.25
2019-05-26T03:34:06.906Z,6.22
2019-05-26T03:35:06.901Z,6.35
2019-05-26T03:36:10.371Z,6.47
2019-05-26T03:37:06.874Z,6.41
2019-05-26T03:38:06.860Z,6.36
2019-05-26T03:39:06.855Z,6.35
2019-05-26T03:40:06.840Z,6.38
2019-05-26T03:41:06.825Z,6.46
2019-05-26T03:42:07.026Z,6.47
2019-05-26T03:43:06.802Z,6.51
2019-05-26T03:44:06.790Z,6.48
2019-05-26T03:45:06.779Z,6.51
2019-05-26T03:46:06.769Z,6.51
2019-05-26T03:47:06.756Z,6.46
2019-05-26T03:48:06.818Z,6.44
2019-05-26T03:49:06.736Z,6.56
2019-05-26T03:50:06.731Z,6.63
2019-05-26T03:51:06.712Z,6.62
2019-05-26T03:52:06.699Z,6.54
2019-05-26T03:53:06.825Z,6.71
2019-05-26T03:54:06.747Z,6.69
2019-05-26T03:55:06.667Z,6.76
2019-05-26T03:56:06.655Z,6.76
2019-05-26T03:57:06.642Z,6.72
2019-05-26T03:58:06.729Z,6.72
2019-05-26T03:59:06.638Z,6.73
2019-05-26T04:00:06.713Z,6.72
2019-05-26T04:01:06.595Z,6.76
2019-05-26T04:02:06.584Z,6.83
2019-05-26T04:03:06.575Z,6.81
2019-05-26T04:04:06.563Z,6.86
2019-05-26T04:05:06.557Z,6.89
2019-05-26T04:06:06.603Z,6.89
2019-05-26T04:07:06.630Z,6.87
2019-05-26T04:08:06.517Z,6.87
2019-05-26T04:09:06.510Z,6.84
2019-05-26T04:10:06.642Z,6.90
2019-05-26T04:11:06.484Z,6.90
2019-05-26T04:12:06.548Z,7.02
2019-05-26T04:13:06.456Z,6.98
2019-05-26T04:14:06.461Z,6.99
2019-05-26T04:15:06.436Z,6.98
2019-05-26T04:16:06.434Z,7.13
2019-05-26T04:17:06.410Z,7.09
2019-05-26T04:18:06.466Z,7.13
2019-05-26T04:19:06.395Z,7.13
2019-05-26T04:20:06.382Z,7.19
2019-05-26T04:21:06.381Z,7.23
2019-05-26T04:22:06.355Z,7.32
2019-05-26T04:23:06.346Z,7.31
2019-05-26T04:24:06.397Z,7.34
2019-05-26T04:25:06.346Z,7.42
2019-05-26T04:26:06.319Z,7.42
2019-05-26T04:27:06.303Z,7.42
2019-05-26T04:28:06.300Z,7.55
2019-05-26T04:29:06.284Z,7.58
2019-05-26T04:30:06.342Z,7.59
2019-05-26T04:31:06.266Z,7.66
2019-05-26T04:32:06.241Z,7.71
2019-05-26T04:33:06.234Z,7.75
2019-05-26T04:34:06.218Z,7.75
2019-05-26T04:35:06.214Z,7.79
2019-05-26T04:36:06.303Z,7.77
2019-05-26T04:37:06.216Z,7.84
2019-05-26T04:38:06.174Z,7.77
2019-05-26T04:39:06.173Z,7.84
2019-05-26T04:40:24.750Z,8.03
2019-05-26T04:41:07.204Z,8.04
2019-05-26T04:42:06.145Z,8.11
2019-05-26T04:43:06.146Z,8.04
2019-05-26T04:44:06.112Z,8.14
2019-05-26T04:45:06.217Z,8.15
2019-05-26T04:46:06.095Z,8.18
2019-05-26T04:47:06.216Z,8.20
2019-05-26T04:48:06.086Z,8.25
2019-05-26T04:49:06.058Z,8.33
2019-05-26T04:50:06.042Z,8.40
2019-05-26T04:51:06.034Z,8.47
2019-05-26T04:52:06.020Z,8.50
2019-05-26T04:53:07.381Z,8.55
2019-05-26T04:54:06.059Z,8.50
2019-05-26T04:55:06.036Z,8.73
2019-05-26T04:56:05.977Z,8.73
2019-05-26T04:57:05.977Z,8.84
2019-05-26T04:58:05.957Z,8.83
2019-05-26T04:59:06.152Z,8.87
2019-05-26T05:00:05.929Z,8.94
2019-05-26T05:01:05.923Z,8.99
2019-05-26T05:02:05.931Z,9.04
2019-05-26T05:03:05.914Z,9.18
2019-05-26T05:04:05.905Z,9.20
2019-05-26T05:05:05.969Z,9.28
2019-05-26T05:06:05.862Z,9.40
2019-05-26T05:07:05.852Z,9.46
2019-05-26T05:08:05.864Z,9.52
2019-05-26T05:09:05.833Z,9.50
2019-05-26T05:10:05.822Z,9.64
2019-05-26T05:11:05.879Z,9.68
2019-05-26T05:12:05.796Z,9.66
2019-05-26T05:13:05.788Z,9.88
2019-05-26T05:14:05.771Z,9.88
2019-05-26T05:15:05.757Z,9.94
2019-05-26T05:16:05.748Z,10.01
2019-05-26T05:17:05.828Z,10.09
2019-05-26T05:18:05.747Z,10.04
2019-05-26T05:19:05.733Z,10.09
2019-05-26T05:20:05.700Z,10.14
2019-05-26T05:21:05.689Z,10.18
2019-05-26T05:22:05.682Z,10.28
2019-05-26T05:23:05.737Z,10.36
2019-05-26T05:24:05.656Z,10.40
2019-05-26T05:25:13.833Z,10.56
2019-05-26T05:26:06.634Z,10.56
2019-05-26T05:27:05.622Z,10.77
2019-05-26T05:28:05.613Z,10.76
2019-05-26T05:29:05.666Z,10.81
2019-05-26T05:30:05.588Z,10.95
2019-05-26T05:31:05.578Z,11.03
2019-05-26T05:32:05.567Z,11.09
2019-05-26T05:33:05.560Z,11.19
2019-05-26T05:34:05.543Z,11.20
2019-05-26T05:35:05.741Z,11.24
2019-05-26T05:36:05.526Z,11.35
2019-05-26T05:37:05.510Z,11.36
2019-05-26T05:38:05.503Z,11.53
2019-05-26T05:39:05.486Z,11.62
2019-05-26T05:40:05.474Z,11.68
2019-05-26T05:41:05.534Z,11.77
2019-05-26T05:42:05.454Z,11.94
2019-05-26T05:43:05.442Z,11.97
2019-05-26T05:44:05.441Z,12.04
2019-05-26T05:45:05.419Z,12.23
2019-05-26T05:46:05.418Z,12.26
2019-05-26T05:47:05.486Z,12.39
2019-05-26T05:48:05.385Z,12.59
2019-05-26T05:49:05.374Z,12.67
2019-05-26T05:50:05.364Z,12.82
2019-05-26T05:51:05.354Z,13.06
2019-05-26T05:52:05.340Z,13.47
2019-05-26T05:53:05.403Z,13.62
2019-05-26T05:54:05.373Z,13.67
2019-05-26T05:55:05.305Z,13.63
2019-05-26T05:56:05.341Z,14.20
2019-05-26T05:57:05.286Z,14.56
2019-05-26T05:58:05.272Z,14.78
2019-05-26T05:59:05.371Z,14.95
2019-05-26T06:00:05.250Z,15.28
2019-05-26T06:01:05.241Z,15.49
2019-05-26T06:02:05.227Z,15.75
2019-05-26T06:03:05.216Z,16.01
2019-05-26T06:04:05.203Z,16.45
2019-05-26T06:05:05.259Z,16.42
2019-05-26T06:06:05.204Z,16.31
2019-05-26T06:07:05.173Z,16.40
2019-05-26T06:08:05.162Z,16.14
2019-05-26T06:09:05.147Z,16.33
2019-05-26T06:10:05.139Z,16.50
2019-05-26T06:11:16.141Z,16.37
2019-05-26T06:12:06.112Z,16.50
2019-05-26T06:13:05.105Z,16.74
2019-05-26T06:14:05.092Z,17.20
2019-05-26T06:15:05.082Z,17.32
2019-05-26T06:16:05.073Z,17.51
2019-05-26T06:17:05.123Z,17.69
2019-05-26T06:18:05.049Z,17.78
2019-05-26T06:19:05.036Z,17.88
2019-05-26T06:20:05.024Z,18.04
2019-05-26T06:21:05.016Z,18.17
2019-05-26T06:22:05.004Z,18.09
2019-05-26T06:23:05.065Z,18.10
2019-05-26T06:24:04.979Z,18.25
2019-05-26T06:25:04.968Z,17.89
2019-05-26T06:26:04.958Z,18.18
2019-05-26T06:27:04.946Z,18.24
2019-05-26T06:28:04.937Z,18.19
2019-05-26T06:29:05.132Z,17.40
2019-05-26T06:30:04.911Z,17.14
2019-05-26T06:31:04.899Z,17.43
2019-05-26T06:32:05.037Z,17.57
2019-05-26T06:33:04.877Z,17.76
2019-05-26T06:34:04.881Z,17.63
2019-05-26T06:35:05.262Z,17.62
2019-05-26T06:36:04.865Z,17.79
2019-05-26T06:37:04.835Z,18.03
2019-05-26T06:38:04.822Z,17.94
2019-05-26T06:39:04.813Z,18.10
2019-05-26T06:40:04.804Z,18.28
2019-05-26T06:41:05.002Z,18.43
2019-05-26T06:42:04.778Z,18.28
2019-05-26T06:43:04.767Z,18.28
2019-05-26T06:44:04.755Z,18.12
2019-05-26T06:45:04.762Z,18.29
2019-05-26T06:46:04.734Z,18.46
2019-05-26T06:47:04.935Z,18.65
2019-05-26T06:48:04.714Z,19.02
2019-05-26T06:49:04.700Z,19.46
2019-05-26T06:50:04.689Z,19.66
2019-05-26T06:51:04.678Z,19.42
2019-05-26T06:52:04.670Z,19.42
2019-05-26T06:53:04.723Z,19.33
2019-05-26T06:54:04.650Z,19.46
2019-05-26T06:55:04.634Z,19.73
2019-05-26T06:56:04.621Z,19.43
2019-05-26T06:57:04.611Z,19.35
2019-05-26T06:58:04.599Z,19.66
2019-05-26T06:59:04.658Z,20.10
2019-05-26T07:00:04.576Z,20.20
2019-05-26T07:01:04.583Z,20.09
2019-05-26T07:02:04.575Z,20.12
2019-05-26T07:03:04.547Z,20.43
2019-05-26T07:04:04.531Z,20.42
2019-05-26T07:05:04.733Z,20.15
2019-05-26T07:06:04.529Z,19.98
2019-05-26T07:07:04.498Z,20.15
2019-05-26T07:08:04.485Z,20.16
2019-05-26T07:09:04.483Z,20.30
2019-05-26T07:10:04.464Z,20.54
2019-05-26T07:11:04.520Z,20.64
2019-05-26T07:12:04.447Z,20.68
2019-05-26T07:13:04.430Z,20.15
2019-05-26T07:14:04.419Z,20.06
2019-05-26T07:15:04.414Z,20.18
2019-05-26T07:16:04.405Z,20.31
2019-05-26T07:17:04.462Z,20.98
2019-05-26T07:18:04.449Z,21.14
2019-05-26T07:19:04.362Z,21.26
2019-05-26T07:20:04.350Z,21.38
2019-05-26T07:21:04.338Z,21.79
2019-05-26T07:22:04.332Z,21.98
2019-05-26T07:23:06.227Z,21.60
2019-05-26T07:24:04.306Z,21.64
2019-05-26T07:25:04.294Z,21.60
2019-05-26T07:26:04.288Z,21.35
2019-05-26T07:27:04.271Z,21.20
2019-05-26T07:28:04.267Z,21.35
2019-05-26T07:29:04.315Z,21.57
2019-05-26T07:30:04.241Z,21.69
2019-05-26T07:31:04.229Z,21.56
2019-05-26T07:32:04.217Z,21.74
2019-05-26T07:33:04.204Z,22.23
2019-05-26T07:34:04.195Z,22.72
2019-05-26T07:35:04.511Z,23.09
2019-05-26T07:36:04.175Z,23.45
2019-05-26T07:37:04.162Z,23.83
2019-05-26T07:38:04.149Z,23.46
2019-05-26T07:39:04.140Z,23.19
2019-05-26T07:40:04.128Z,23.07
2019-05-26T07:41:04.187Z,22.99
2019-05-26T07:42:10.538Z,23.20
2019-05-26T07:43:05.095Z,23.62
2019-05-26T07:44:04.084Z,24.01
2019-05-26T07:45:04.072Z,24.47
2019-05-26T07:46:04.062Z,24.45
2019-05-26T07:47:04.118Z,24.49
2019-05-26T07:48:04.041Z,24.01
2019-05-26T07:49:04.031Z,23.82
2019-05-26T07:50:04.020Z,23.86
2019-05-26T07:51:04.014Z,23.85
2019-05-26T07:52:03.997Z,24.01
2019-05-26T07:53:04.052Z,24.34
2019-05-26T07:54:04.256Z,24.59
2019-05-26T07:55:03.963Z,24.61
2019-05-26T07:56:03.955Z,24.75
2019-05-26T07:57:03.941Z,24.50
2019-05-26T07:58:03.928Z,24.54
2019-05-26T07:59:03.987Z,24.77
2019-05-26T08:00:03.907Z,24.53
2019-05-26T08:01:03.895Z,24.53
2019-05-26T08:02:03.883Z,24.20
2019-05-26T08:03:03.872Z,24.01
2019-05-26T08:04:03.860Z,24.10
2019-05-26T08:05:04.364Z,23.80
2019-05-26T08:06:03.839Z,23.72
2019-05-26T08:07:03.831Z,23.83
2019-05-26T08:08:12.866Z,23.32
2019-05-26T08:09:04.805Z,23.26
2019-05-26T08:10:03.791Z,23.29
2019-05-26T08:11:03.850Z,22.97
2019-05-26T08:12:03.777Z,22.89
2019-05-26T08:13:03.757Z,22.82
2019-05-26T08:14:03.746Z,22.93
2019-05-26T08:15:03.759Z,23.38
2019-05-26T08:16:03.721Z,23.61
2019-05-26T08:17:03.777Z,23.58
2019-05-26T08:18:03.701Z,23.72
2019-05-26T08:19:03.688Z,23.27
2019-05-26T08:20:03.680Z,22.80
2019-05-26T08:21:03.665Z,22.86
2019-05-26T08:22:03.654Z,23.04
2019-05-26T08:23:03.718Z,23.38
2019-05-26T08:24:03.631Z,23.50
2019-05-26T08:25:03.619Z,24.13
2019-05-26T08:26:03.610Z,24.07
2019-05-26T08:27:03.595Z,23.95
2019-05-26T08:28:03.594Z,23.27
2019-05-26T08:29:03.787Z,22.87
2019-05-26T08:30:03.563Z,22.96
2019-05-26T08:31:03.551Z,23.22
2019-05-26T08:32:03.543Z,23.39
2019-05-26T08:33:03.528Z,23.75
2019-05-26T08:34:03.518Z,24.22
2019-05-26T08:35:03.719Z,24.75
2019-05-26T08:36:03.502Z,24.75
2019-05-26T08:37:03.490Z,24.69
2019-05-26T08:38:03.474Z,24.49
2019-05-26T08:39:03.474Z,24.00
2019-05-26T08:40:03.470Z,23.86
2019-05-26T08:41:03.506Z,23.92
2019-05-26T08:42:03.432Z,23.45
2019-05-26T08:43:03.421Z,23.08
2019-05-26T08:44:03.410Z,23.08
2019-05-26T08:45:03.400Z,23.07
2019-05-26T08:46:03.388Z,23.45
2019-05-26T08:47:03.439Z,23.87
2019-05-26T08:48:03.370Z,23.70
2019-05-26T08:49:03.356Z,23.11
2019-05-26T08:50:03.342Z,23.34
2019-05-26T08:51:03.331Z,23.34
2019-05-26T08:52:03.321Z,23.22
2019-05-26T08:53:03.398Z,23.07
2019-05-26T08:54:03.299Z,22.93
2019-05-26T08:55:03.295Z,23.22
2019-05-26T08:56:03.276Z,23.39
2019-05-26T08:57:03.265Z,23.89
2019-05-26T08:58:03.254Z,24.07
2019-05-26T08:59:03.310Z,24.02
2019-05-26T09:00:03.232Z,23.98
2019-05-26T09:01:03.230Z,24.26
2019-05-26T09:02:03.214Z,23.85
2019-05-26T09:03:03.199Z,23.77
2019-05-26T09:04:03.188Z,23.43
2019-05-26T09:05:03.244Z,23.60
2019-05-26T09:06:03.167Z,23.38
2019-05-26T09:07:03.161Z,23.29
2019-05-26T09:08:03.144Z,23.71
2019-05-26T09:09:03.149Z,24.12
2019-05-26T09:10:03.126Z,24.26
2019-05-26T09:11:03.325Z,24.45
2019-05-26T09:12:03.100Z,24.13
2019-05-26T09:13:03.093Z,24.45
2019-05-26T09:14:03.078Z,24.20
2019-05-26T09:15:03.081Z,23.82
2019-05-26T09:16:03.058Z,24.42
2019-05-26T09:17:03.115Z,24.27
2019-05-26T09:18:03.037Z,23.61
2019-05-26T09:19:03.025Z,23.45
2019-05-26T09:20:03.014Z,23.40
2019-05-26T09:21:03.002Z,23.39
2019-05-26T09:22:02.990Z,23.58
2019-05-26T09:23:03.051Z,24.24
2019-05-26T09:24:02.972Z,24.82
2019-05-26T09:25:02.958Z,25.02
2019-05-26T09:26:02.969Z,25.07
2019-05-26T09:27:02.934Z,24.90
2019-05-26T09:28:02.924Z,24.63
2019-05-26T09:29:03.128Z,24.61
2019-05-26T09:30:02.907Z,24.77
2019-05-26T09:31:02.894Z,24.85
2019-05-26T09:32:02.911Z,24.91
2019-05-26T09:33:02.870Z,24.41
2019-05-26T09:34:02.858Z,24.64
2019-05-26T09:35:02.949Z,24.79
2019-05-26T09:36:02.840Z,24.94
2019-05-26T09:37:02.825Z,25.01
2019-05-26T09:38:02.819Z,24.94
2019-05-26T09:39:02.801Z,24.69
2019-05-26T09:40:02.800Z,24.49
2019-05-26T09:41:02.990Z,24.49
2019-05-26T09:42:02.772Z,24.23
2019-05-26T09:43:14.960Z,23.75
2019-05-26T09:44:03.753Z,23.26
2019-05-26T09:45:02.740Z,23.47
2019-05-26T09:46:02.726Z,23.68
2019-05-26T09:47:02.788Z,23.76
2019-05-26T09:48:02.709Z,24.22
2019-05-26T09:49:02.694Z,24.27
2019-05-26T09:50:02.687Z,24.22
2019-05-26T09:51:02.777Z,24.37
2019-05-26T09:52:02.661Z,24.24
2019-05-26T09:53:02.717Z,24.41
2019-05-26T09:54:02.644Z,24.08
2019-05-26T09:55:02.630Z,24.17
2019-05-26T09:56:02.678Z,24.49
2019-05-26T09:57:02.609Z,24.47
2019-05-26T09:58:02.596Z,24.63
2019-05-26T09:59:02.657Z,24.47
2019-05-26T10:00:02.576Z,24.76
2019-05-26T10:01:02.567Z,25.50
2019-05-26T10:02:02.570Z,25.93
2019-05-26T10:03:02.543Z,25.75
2019-05-26T10:04:02.537Z,25.56
2019-05-26T10:05:02.588Z,25.42
2019-05-26T10:06:02.508Z,25.01
2019-05-26T10:07:02.515Z,24.71
2019-05-26T10:08:02.491Z,24.60
2019-05-26T10:09:02.478Z,24.67
2019-05-26T10:10:02.466Z,24.38
2019-05-26T10:11:02.519Z,24.63
2019-05-26T10:12:02.446Z,24.77
2019-05-26T10:13:02.433Z,25.02
2019-05-26T10:14:02.422Z,24.80
2019-05-26T10:15:02.419Z,24.77
2019-05-26T10:16:02.404Z,24.97
2019-05-26T10:17:02.462Z,25.24
2019-05-26T10:18:02.398Z,26.06
2019-05-26T10:19:02.369Z,26.87
2019-05-26T10:20:02.358Z,26.58
2019-05-26T10:21:02.348Z,25.89
2019-05-26T10:22:02.337Z,25.64
2019-05-26T10:23:02.416Z,25.27
2019-05-26T10:24:02.317Z,25.43
2019-05-26T10:25:02.332Z,25.05
2019-05-26T10:26:02.294Z,25.13
2019-05-26T10:27:02.284Z,24.75
2019-05-26T10:28:02.315Z,24.69
2019-05-26T10:29:02.333Z,24.57
2019-05-26T10:30:02.254Z,24.83
2019-05-26T10:31:02.245Z,25.22
2019-05-26T10:32:02.230Z,25.13
2019-05-26T10:33:02.221Z,25.30
2019-05-26T10:34:02.355Z,25.82
2019-05-26T10:35:02.293Z,26.20
2019-05-26T10:36:02.196Z,25.43
2019-05-26T10:37:02.177Z,25.68
2019-05-26T10:38:02.171Z,26.11
2019-05-26T10:39:02.193Z,26.12
2019-05-26T10:40:02.149Z,26.28
2019-05-26T10:41:02.206Z,26.27
2019-05-26T10:42:02.125Z,26.17
2019-05-26T10:43:02.136Z,25.69
2019-05-26T10:44:02.104Z,25.47
2019-05-26T10:45:02.199Z,26.27
2019-05-26T10:46:02.084Z,26.55
2019-05-26T10:47:02.317Z,26.54
2019-05-26T10:48:02.061Z,26.35
2019-05-26T10:49:02.069Z,26.43
2019-05-26T10:50:02.042Z,26.32
2019-05-26T10:51:02.032Z,26.64
2019-05-26T10:52:02.024Z,26.35
2019-05-26T10:53:02.104Z,26.08
2019-05-26T10:54:01.996Z,25.99
2019-05-26T10:55:01.989Z,25.77
2019-05-26T10:56:01.976Z,26.20
2019-05-26T10:57:01.965Z,26.29
2019-05-26T10:58:02.011Z,25.99
2019-05-26T10:59:02.083Z,26.69
2019-05-26T11:00:02.209Z,26.50
2019-05-26T11:01:01.986Z,26.32
2019-05-26T11:02:01.915Z,26.64
2019-05-26T11:03:01.900Z,26.31
2019-05-26T11:04:01.919Z,26.24
2019-05-26T11:05:01.942Z,26.36
2019-05-26T11:06:01.974Z,26.59
2019-05-26T11:07:01.901Z,26.15
2019-05-26T11:08:01.867Z,26.12
2019-05-26T11:09:01.841Z,26.27
2019-05-26T11:10:01.971Z,26.37
2019-05-26T11:11:02.032Z,26.27
2019-05-26T11:12:01.807Z,25.98
2019-05-26T11:13:01.798Z,26.46
2019-05-26T11:14:03.434Z,25.98
2019-05-26T11:15:01.795Z,26.29
2019-05-26T11:16:01.766Z,26.62
2019-05-26T11:17:01.963Z,25.87
2019-05-26T11:18:01.746Z,25.30
2019-05-26T11:19:01.738Z,25.22
2019-05-26T11:20:01.763Z,24.87
2019-05-26T11:21:01.716Z,24.71
2019-05-26T11:22:01.742Z,24.75
2019-05-26T11:23:01.882Z,24.60
2019-05-26T11:24:01.696Z,24.94
2019-05-26T11:25:01.670Z,25.28
2019-05-26T11:26:01.662Z,25.39
2019-05-26T11:27:10.145Z,25.24
2019-05-26T11:28:02.699Z,25.34
2019-05-26T11:29:01.633Z,25.67
2019-05-26T11:30:01.625Z,25.89
2019-05-26T11:31:01.604Z,25.72
2019-05-26T11:32:01.664Z,25.87
2019-05-26T11:33:01.582Z,26.27
2019-05-26T11:34:01.960Z,26.61
2019-05-26T11:35:02.369Z,26.31
2019-05-26T11:36:01.549Z,26.35
2019-05-26T11:37:01.541Z,26.65
2019-05-26T11:38:01.546Z,26.36
2019-05-26T11:39:01.546Z,26.54
2019-05-26T11:40:01.752Z,26.05
2019-05-26T11:41:01.501Z,25.74
2019-05-26T11:42:13.014Z,25.64
2019-05-26T11:43:15.645Z,25.34
2019-05-26T11:44:15.333Z,25.50
2019-05-26T11:45:02.527Z,26.20
2019-05-26T11:46:01.444Z,26.17
2019-05-26T11:47:01.435Z,26.44
2019-05-26T11:48:01.421Z,26.94
2019-05-26T11:49:01.413Z,27.10
2019-05-26T11:50:01.412Z,26.83
2019-05-26T11:51:01.455Z,26.73
2019-05-26T11:52:01.380Z,27.06
2019-05-26T11:53:01.368Z,27.05
2019-05-26T11:54:01.357Z,27.17
2019-05-26T11:55:01.352Z,26.81
2019-05-26T11:56:01.338Z,26.57
2019-05-26T11:57:01.396Z,26.39
2019-05-26T11:58:01.315Z,26.59
2019-05-26T11:59:01.305Z,26.87
2019-05-26T12:00:01.435Z,27.41
2019-05-26T12:01:01.291Z,27.06
2019-05-26T12:02:01.279Z,26.32
2019-05-26T12:03:01.475Z,26.29
2019-05-26T12:04:01.254Z,26.77
2019-05-26T12:05:01.251Z,26.89
2019-05-26T12:06:01.315Z,26.84
2019-05-26T12:07:04.354Z,26.77
2019-05-26T12:08:01.291Z,27.14
2019-05-26T12:09:01.337Z,26.84
2019-05-26T12:10:01.245Z,26.83
2019-05-26T12:11:01.179Z,26.61
2019-05-26T12:12:01.186Z,26.54
2019-05-26T12:13:01.163Z,26.55
2019-05-26T12:14:01.146Z,26.72
2019-05-26T12:15:01.210Z,26.77
2019-05-26T12:16:01.129Z,26.96
2019-05-26T12:17:01.112Z,26.94
2019-05-26T12:18:01.102Z,26.87
2019-05-26T12:19:01.095Z,26.87
2019-05-26T12:20:04.913Z,27.11
2019-05-26T12:21:01.132Z,26.91
2019-05-26T12:22:01.059Z,26.87
2019-05-26T12:23:01.049Z,26.28
2019-05-26T12:24:01.037Z,26.35
2019-05-26T12:25:01.027Z,26.55
2019-05-26T12:26:01.020Z,26.77
2019-05-26T12:27:01.071Z,27.16
2019-05-26T12:28:01.043Z,27.16
2019-05-26T12:29:00.985Z,27.51
2019-05-26T12:30:00.975Z,28.19
2019-05-26T12:31:00.965Z,28.69
2019-05-26T12:32:00.951Z,28.40
2019-05-26T12:33:01.110Z,27.77
2019-05-26T12:34:00.934Z,27.35
2019-05-26T12:35:00.918Z,28.25
2019-05-26T12:36:00.911Z,27.86
2019-05-26T12:37:00.903Z,27.58
2019-05-26T12:38:00.886Z,27.50
2019-05-26T12:39:00.948Z,27.38
2019-05-26T12:40:00.865Z,27.79
2019-05-26T12:41:00.857Z,28.68
2019-05-26T12:42:00.856Z,28.69
2019-05-26T12:43:00.848Z,28.31
2019-05-26T12:44:00.823Z,28.58
2019-05-26T12:45:00.879Z,27.84
2019-05-26T12:46:00.803Z,27.05
2019-05-26T12:47:00.797Z,26.67
2019-05-26T12:48:00.784Z,26.92
2019-05-26T12:49:00.770Z,26.73
2019-05-26T12:50:00.761Z,27.48
2019-05-26T12:51:00.821Z,27.76
2019-05-26T12:52:00.739Z,27.88
2019-05-26T12:53:00.727Z,28.04
2019-05-26T12:54:00.721Z,28.51
2019-05-26T12:55:00.710Z,28.53
2019-05-26T12:56:00.698Z,28.73
2019-05-26T12:57:00.903Z,28.03
2019-05-26T12:58:00.675Z,27.36
2019-05-26T12:59:00.665Z,26.49
2019-05-26T13:00:00.658Z,26.44
2019-05-26T13:01:00.692Z,26.79
2019-05-26T13:02:00.634Z,26.84